createdAt,value
2022-09-12T00:02:21.203Z,3.60
2022-09-12T00:04:51.965Z,3.62
2022-09-12T00:07:22.305Z,3.52
2022-09-12T00:09:52.663Z,3.47
2022-09-12T00:12:22.972Z,3.62
2022-09-12T00:14:53.364Z,3.75
2022-09-12T00:17:23.691Z,3.92
2022-09-12T00:19:54.456Z,3.37
2022-09-12T00:22:25.172Z,4.58
2022-09-12T00:24:55.456Z,3.02
2022-09-12T00:27:25.945Z,3.77
2022-09-12T00:29:56.316Z,3.75
2022-09-12T00:32:26.638Z,4.00
2022-09-12T00:34:56.935Z,4.17
2022-09-12T00:37:27.254Z,4.37
2022-09-12T00:39:57.845Z,3.52
2022-09-12T00:42:28.180Z,4.03
2022-09-12T00:44:58.814Z,5.55
2022-09-12T00:47:31.818Z,4.65
2022-09-12T00:50:11.010Z,4.20
2022-09-12T00:52:47.090Z,4.58
2022-09-12T00:55:26.283Z,4.78
2022-09-12T00:58:02.326Z,4.30
2022-09-12T01:00:33.001Z,5.08
2022-09-12T01:03:06.361Z,4.17
2022-09-12T01:05:39.434Z,5.12
2022-09-12T01:08:09.798Z,5.03
2022-09-12T01:10:41.659Z,4.42
2022-09-12T01:13:14.251Z,4.25
2022-09-12T01:15:44.582Z,4.53
2022-09-12T01:18:26.530Z,5.40
2022-09-12T01:21:02.739Z,4.28
2022-09-12T01:23:48.263Z,5.03
2022-09-12T01:26:50.374Z,4.40
2022-09-12T01:29:47.795Z,4.30
2022-09-12T01:32:40.368Z,4.30
2022-09-12T01:35:36.470Z,4.17
2022-09-12T01:38:36.195Z,5.20
2022-09-12T01:41:32.104Z,4.37
2022-09-12T01:44:17.970Z,5.33
2022-09-12T01:47:09.366Z,4.55
2022-09-12T01:50:00.855Z,4.35
2022-09-12T01:52:34.600Z,4.40
2022-09-12T01:55:17.109Z,5.30
2022-09-12T01:57:53.430Z,4.55
2022-09-12T02:00:23.950Z,4.58
2022-09-12T02:02:57.962Z,5.28
2022-09-12T02:05:34.219Z,5.20
2022-09-12T02:08:13.178Z,11.30
2022-09-12T02:10:46.668Z,5.22
2022-09-12T02:13:22.784Z,5.97
2022-09-12T02:15:56.563Z,4.90
2022-09-12T02:18:29.832Z,5.10
2022-09-12T02:21:02.282Z,5.95
2022-09-12T02:23:34.524Z,5.55
2022-09-12T02:26:07.931Z,5.20
2022-09-12T02:28:41.431Z,5.35
2022-09-12T02:31:34.491Z,5.40
2022-09-12T02:34:26.183Z,5.55
2022-09-12T02:37:05.054Z,5.12
2022-09-12T02:39:35.920Z,5.30
2022-09-12T02:42:06.777Z,5.55
2022-09-12T02:44:37.810Z,6.03
2022-09-12T02:47:11.194Z,5.40
2022-09-12T02:49:41.565Z,5.40
2022-09-12T02:52:12.046Z,5.10
2022-09-12T02:54:43.244Z,5.37
2022-09-12T02:57:22.653Z,5.10
2022-09-12T02:59:53.191Z,5.95
2022-09-12T03:02:34.985Z,5.12
2022-09-12T03:05:23.547Z,4.80
2022-09-12T03:08:16.645Z,6.00
2022-09-12T03:11:09.607Z,5.45
2022-09-12T03:13:45.959Z,5.10
2022-09-12T03:16:37.642Z,5.78
2022-09-12T03:19:11.108Z,5.75
2022-09-12T03:21:59.709Z,4.62
2022-09-12T03:24:37.405Z,6.03
2022-09-12T03:27:19.993Z,8.15
2022-09-12T03:29:51.794Z,5.70
2022-09-12T03:32:24.123Z,5.45
2022-09-12T03:34:54.477Z,5.60
2022-09-12T03:37:24.807Z,5.40
2022-09-12T03:39:55.227Z,5.47
2022-09-12T03:42:25.772Z,6.35
2022-09-12T03:44:56.241Z,5.55
2022-09-12T03:47:26.520Z,8.63
2022-09-12T03:49:56.829Z,5.92
2022-09-12T03:52:27.378Z,6.58
2022-09-12T03:54:57.677Z,5.67
2022-09-12T03:57:27.986Z,5.35
2022-09-12T03:59:58.337Z,7.50
2022-09-12T04:02:29.080Z,8.55
2022-09-12T04:04:59.419Z,6.12
2022-09-12T04:07:29.798Z,6.70
2022-09-12T04:10:00.122Z,7.60
2022-09-12T04:12:31.061Z,6.87
2022-09-12T04:15:01.429Z,9.65
2022-09-12T04:17:31.877Z,8.00
2022-09-12T04:20:02.518Z,14.65
2022-09-12T04:22:33.206Z,19.20
2022-09-12T04:25:04.060Z,18.75
2022-09-12T04:27:34.894Z,23.90
2022-09-12T04:30:06.014Z,23.42
2022-09-12T04:32:36.360Z,21.90
2022-09-12T04:35:06.868Z,29.15
2022-09-12T04:37:37.190Z,28.77
2022-09-12T04:40:08.815Z,32.90
2022-09-12T04:42:39.163Z,22.48
2022-09-12T04:45:10.153Z,25.15
2022-09-12T04:47:40.594Z,16.67
2022-09-12T04:50:11.258Z,12.10
2022-09-12T04:52:42.618Z,11.15
2022-09-12T04:55:12.953Z,10.82
2022-09-12T04:57:43.362Z,19.15
2022-09-12T05:00:15.088Z,9.13
2022-09-12T05:02:45.580Z,7.03
2022-09-12T05:05:17.418Z,7.12
2022-09-12T05:07:47.837Z,8.15
2022-09-12T05:10:18.143Z,9.43
2022-09-12T05:15:38.040Z,8.28
2022-09-12T05:18:08.521Z,9.85
2022-09-12T05:20:39.036Z,9.65
2022-09-12T05:23:12.355Z,8.78
2022-09-12T05:25:50.853Z,8.25
2022-09-12T05:28:23.066Z,8.08
2022-09-12T05:31:04.934Z,9.00
2022-09-12T05:33:37.142Z,9.53
2022-09-12T05:36:09.786Z,8.25
2022-09-12T05:38:40.561Z,8.03
2022-09-12T05:41:17.479Z,9.35
2022-09-12T05:43:46.730Z,8.88
2022-09-12T05:46:19.617Z,9.48
2022-09-12T05:48:55.696Z,8.78
2022-09-12T05:51:26.439Z,10.35
2022-09-12T05:53:59.045Z,9.38
2022-09-12T05:56:32.000Z,9.03
2022-09-12T05:59:04.592Z,9.15
2022-09-12T06:01:36.377Z,10.23
2022-09-12T06:04:08.144Z,9.35
2022-09-12T06:06:48.649Z,11.08
2022-09-12T06:09:19.488Z,8.85
2022-09-12T06:11:49.822Z,8.68
2022-09-12T06:14:20.827Z,9.08
2022-09-12T06:16:51.276Z,10.38
2022-09-12T06:19:23.748Z,10.40
2022-09-12T06:21:54.337Z,27.77
2022-09-12T06:24:24.627Z,10.72
2022-09-12T06:26:54.956Z,11.18
2022-09-12T06:29:25.762Z,10.03
2022-09-12T06:31:56.143Z,10.45
2022-09-12T06:34:27.011Z,11.48
2022-09-12T06:36:57.939Z,11.12
2022-09-12T06:39:28.300Z,10.38
2022-09-12T06:41:58.840Z,13.53
2022-09-12T06:44:29.722Z,10.70
2022-09-12T06:47:00.036Z,11.48
2022-09-12T06:49:31.632Z,10.28
2022-09-12T06:52:02.164Z,11.75
2022-09-12T06:54:32.638Z,16.57
2022-09-12T06:57:02.981Z,11.40
2022-09-12T06:59:33.435Z,10.20
2022-09-12T07:02:03.801Z,10.32
2022-09-12T07:04:35.819Z,10.53
2022-09-12T07:07:06.381Z,9.93
2022-09-12T07:09:36.762Z,11.85
2022-09-12T07:12:08.012Z,9.23
2022-09-12T07:14:43.197Z,8.88
2022-09-12T07:17:13.513Z,10.60
2022-09-12T07:19:44.295Z,7.70
2022-09-12T07:22:14.717Z,8.45
2022-09-12T07:24:51.170Z,9.75
2022-09-12T07:27:28.966Z,7.62
2022-09-12T07:30:00.465Z,12.03
2022-09-12T07:32:30.855Z,11.65
2022-09-12T07:35:01.287Z,10.08
2022-09-12T07:37:32.153Z,12.25
2022-09-12T07:40:03.125Z,9.83
2022-09-12T07:42:35.706Z,8.68
2022-09-12T07:45:06.604Z,10.90
2022-09-12T07:47:37.219Z,9.45
2022-09-12T07:50:08.132Z,9.25
2022-09-12T07:52:38.587Z,7.90
2022-09-12T07:55:09.276Z,9.65
2022-09-12T07:57:39.603Z,11.73
2022-09-12T08:00:10.875Z,10.30
2022-09-12T08:02:41.370Z,8.93
2022-09-12T08:05:11.940Z,8.28
2022-09-12T08:07:42.390Z,9.75
2022-09-12T08:10:13.103Z,9.48
2022-09-12T08:12:45.183Z,8.25
2022-09-12T08:15:16.356Z,7.50
2022-09-12T08:17:46.893Z,6.55
2022-09-12T08:20:18.955Z,8.20
2022-09-12T08:22:49.357Z,7.67
2022-09-12T08:25:19.746Z,8.23
2022-09-12T08:27:50.212Z,5.90
2022-09-12T08:30:20.678Z,7.35
2022-09-12T08:32:51.089Z,5.50
2022-09-12T08:35:21.591Z,6.60
2022-09-12T08:37:52.097Z,8.08
2022-09-12T08:40:22.487Z,9.05
2022-09-12T08:43:03.644Z,10.13
2022-09-12T08:45:39.877Z,5.55
2022-09-12T08:48:12.290Z,3.33
2022-09-12T08:50:49.231Z,3.35
2022-09-12T08:53:20.342Z,2.85
2022-09-12T08:55:56.617Z,4.00
2022-09-12T08:58:29.470Z,2.87
2022-09-12T09:01:14.699Z,3.95
2022-09-12T09:04:12.815Z,3.00
2022-09-12T09:06:55.007Z,2.72
2022-09-12T09:09:37.485Z,2.42
2022-09-12T09:12:35.284Z,4.60
2022-09-12T09:15:19.127Z,3.05
2022-09-12T09:17:55.564Z,2.80
2022-09-12T09:20:56.053Z,3.85
2022-09-12T09:23:41.586Z,4.92
2022-09-12T09:26:17.801Z,3.02
2022-09-12T09:28:52.798Z,3.70
2022-09-12T09:31:26.349Z,3.42
2022-09-12T09:34:00.470Z,3.58
2022-09-12T09:36:55.379Z,3.25
2022-09-12T09:39:57.634Z,4.28
2022-09-12T09:42:53.988Z,3.37
2022-09-12T09:45:28.021Z,4.37
2022-09-12T09:48:13.204Z,3.30
2022-09-12T09:50:45.389Z,9.85
2022-09-12T09:53:44.121Z,4.17
2022-09-12T09:56:28.932Z,5.22
2022-09-12T09:59:02.426Z,4.83
2022-09-12T10:01:33.432Z,5.50
2022-09-12T10:04:04.403Z,4.83
2022-09-12T10:06:36.857Z,4.45
2022-09-12T10:09:22.413Z,6.78
2022-09-12T10:11:54.021Z,5.40
2022-09-12T10:14:39.718Z,5.42
2022-09-12T10:17:34.840Z,2.70
2022-09-12T10:20:22.024Z,3.92
2022-09-12T10:22:39.824Z,3.80
2022-09-12T10:25:13.375Z,3.10
2022-09-12T10:27:44.124Z,2.42
2022-09-12T10:30:23.066Z,1.92
2022-09-12T10:32:54.145Z,2.52
2022-09-12T10:35:27.898Z,3.35
2022-09-12T10:38:04.768Z,2.62
2022-09-12T10:40:38.168Z,2.70
2022-09-12T10:43:28.900Z,1.92
2022-09-12T10:46:02.003Z,1.85
2022-09-12T10:48:33.672Z,2.45
2022-09-12T10:51:04.062Z,2.20
2022-09-12T10:53:42.641Z,2.90
2022-09-12T10:56:25.015Z,1.72
2022-09-12T10:59:20.366Z,2.12
2022-09-12T11:02:11.027Z,1.75
2022-09-12T11:04:44.566Z,2.55
2022-09-12T11:07:20.733Z,1.60
2022-09-12T11:10:10.457Z,1.35
2022-09-12T11:12:55.755Z,1.25
2022-09-12T11:15:50.660Z,1.52
2022-09-12T11:18:46.959Z,1.65
2022-09-12T11:21:53.888Z,2.65
2022-09-12T11:24:36.072Z,1.20
2022-09-12T11:27:26.574Z,2.98
2022-09-12T11:30:12.158Z,1.98
2022-09-12T11:33:05.332Z,2.00
2022-09-12T11:35:38.785Z,1.40
2022-09-12T11:38:21.152Z,1.60
2022-09-12T11:40:57.488Z,2.20
2022-09-12T11:43:40.149Z,1.05
2022-09-12T11:46:25.782Z,1.20
2022-09-12T11:49:14.947Z,1.70
2022-09-12T11:51:54.521Z,1.98
2022-09-12T11:54:30.908Z,1.65
2022-09-12T11:57:25.748Z,1.20
2022-09-12T11:59:59.217Z,2.30
2022-09-12T12:02:41.800Z,2.77
2022-09-12T12:05:36.385Z,1.42
2022-09-12T12:08:08.292Z,2.75
2022-09-12T12:10:41.892Z,3.05
2022-09-12T12:13:31.989Z,12.53
2022-09-12T12:16:33.914Z,1.85
2022-09-12T12:19:19.120Z,2.58
2022-09-12T12:21:51.705Z,1.50
2022-09-12T12:24:25.098Z,2.35
2022-09-12T12:26:58.571Z,1.87
2022-09-12T12:29:45.795Z,2.10
2022-09-12T12:32:22.099Z,1.57
2022-09-12T12:34:55.735Z,1.25
2022-09-12T12:37:31.832Z,1.40
2022-09-12T12:40:11.579Z,1.75
2022-09-12T12:42:47.887Z,2.20
2022-09-12T12:45:33.666Z,4.62
2022-09-12T12:48:12.947Z,1.62
2022-09-12T12:50:43.556Z,1.57
2022-09-12T12:53:28.654Z,1.90
2022-09-12T12:56:00.798Z,1.32
2022-09-12T12:58:36.000Z,1.50
2022-09-12T13:01:12.508Z,2.00
2022-09-12T13:03:48.361Z,1.67
2022-09-12T13:06:42.982Z,1.45
2022-09-12T13:09:25.595Z,1.67
2022-09-12T13:12:04.929Z,4.78
2022-09-12T13:14:37.854Z,2.60
2022-09-12T13:17:10.772Z,1.50
2022-09-12T13:19:42.084Z,3.22
2022-09-12T13:22:13.009Z,1.60
2022-09-12T13:24:51.895Z,3.62
2022-09-12T13:27:26.753Z,1.60
2022-09-12T13:30:15.278Z,2.55
2022-09-12T13:32:45.995Z,1.40
2022-09-12T13:35:38.494Z,1.55
2022-09-12T13:38:20.707Z,1.50
2022-09-12T13:40:56.800Z,1.52
2022-09-12T13:43:33.025Z,2.30
2022-09-12T13:46:03.515Z,1.60
2022-09-12T13:48:37.192Z,1.60
2022-09-12T13:51:07.892Z,1.60
2022-09-12T13:53:44.169Z,1.50
2022-09-12T13:56:18.852Z,1.52
2022-09-12T13:58:56.452Z,1.70
2022-09-12T14:01:41.275Z,2.05
2022-09-12T14:04:42.794Z,1.98
2022-09-12T14:07:22.458Z,3.12
2022-09-12T14:09:59.108Z,3.12
2022-09-12T14:12:42.696Z,2.27
2022-09-12T14:15:23.570Z,1.80
2022-09-12T14:17:58.640Z,5.85
2022-09-12T14:20:33.397Z,2.02
2022-09-12T14:23:06.987Z,1.75
2022-09-12T14:25:42.351Z,1.98
2022-09-12T14:28:19.302Z,3.45
2022-09-12T14:31:16.771Z,1.70
2022-09-12T14:33:55.351Z,1.80
2022-09-12T14:36:37.567Z,1.45
2022-09-12T14:39:29.362Z,2.12
2022-09-12T14:42:18.283Z,1.57
2022-09-12T14:44:58.202Z,1.50
2022-09-12T14:47:31.278Z,1.90
2022-09-12T14:50:02.012Z,2.80
2022-09-12T14:52:35.232Z,1.80
2022-09-12T14:55:11.223Z,1.60
2022-09-12T14:57:44.123Z,1.52
2022-09-12T15:00:19.191Z,2.75
2022-09-12T15:02:54.396Z,1.70
2022-09-12T15:05:28.141Z,1.55
2022-09-12T15:08:01.492Z,1.82
2022-09-12T15:10:34.740Z,1.85
2022-09-12T15:13:17.152Z,1.98
2022-09-12T15:15:50.986Z,7.37
2022-09-12T15:18:23.932Z,4.55
2022-09-12T15:20:56.880Z,1.60
2022-09-12T15:23:36.181Z,1.75
2022-09-12T15:26:11.263Z,1.87
2022-09-12T15:28:43.477Z,2.10
2022-09-12T15:31:28.311Z,2.10
2022-09-12T15:34:00.811Z,1.82
2022-09-12T15:36:31.449Z,2.10
2022-09-12T15:39:03.315Z,3.08
2022-09-12T15:41:39.025Z,1.92
2022-09-12T15:44:12.922Z,1.90
2022-09-12T15:46:43.357Z,1.77
2022-09-12T15:49:13.796Z,1.70
2022-09-12T15:51:44.294Z,1.57
2022-09-12T15:54:17.237Z,2.92
2022-09-12T15:56:47.587Z,1.82
2022-09-12T15:59:17.965Z,1.80
2022-09-12T16:01:49.199Z,1.57
2022-09-12T16:04:25.037Z,1.90
2022-09-12T16:06:56.693Z,1.87
2022-09-12T16:09:27.147Z,2.72
2022-09-12T16:11:57.541Z,4.53
2022-09-12T16:14:27.898Z,5.20
2022-09-12T16:16:58.556Z,3.72
2022-09-12T16:19:28.836Z,3.42
2022-09-12T16:21:59.287Z,2.58
2022-09-12T16:24:29.522Z,2.25
2022-09-12T16:27:01.246Z,4.85
2022-09-12T16:29:31.957Z,1.95
2022-09-12T16:32:02.409Z,2.22
2022-09-12T16:34:32.780Z,2.60
2022-09-12T16:37:03.124Z,2.65
2022-09-12T16:39:38.865Z,2.02
2022-09-12T16:42:12.178Z,4.17
2022-09-12T16:44:43.192Z,3.47
2022-09-12T16:47:14.336Z,2.90
2022-09-12T16:49:44.831Z,2.33
2022-09-12T16:52:16.598Z,3.00
2022-09-12T16:54:46.947Z,2.33
2022-09-12T16:57:17.457Z,2.20
2022-09-12T16:59:47.852Z,2.20
2022-09-12T17:02:18.296Z,3.40
2022-09-12T17:04:48.941Z,10.45
2022-09-12T17:07:22.976Z,4.03
2022-09-12T17:09:53.442Z,3.22
2022-09-12T17:12:24.074Z,2.85
2022-09-12T17:14:57.309Z,3.08
2022-09-12T17:17:31.365Z,3.67
2022-09-12T17:20:01.899Z,2.70
2022-09-12T17:22:33.559Z,2.67
2022-09-12T17:25:07.395Z,3.12
2022-09-12T17:27:37.781Z,2.70
2022-09-12T17:30:09.497Z,2.75
2022-09-12T17:32:39.864Z,2.87
2022-09-12T17:35:11.007Z,2.75
2022-09-12T17:37:42.125Z,2.60
2022-09-12T17:40:12.817Z,3.10
2022-09-12T17:42:44.275Z,3.08
2022-09-12T17:45:18.308Z,2.90
2022-09-12T17:47:47.267Z,3.20
2022-09-12T17:50:31.801Z,4.17
2022-09-12T17:52:52.892Z,2.98
2022-09-12T17:55:23.201Z,4.05
2022-09-12T17:57:54.060Z,3.08
2022-09-12T18:00:26.037Z,3.37
2022-09-12T18:02:56.420Z,3.20
2022-09-12T18:05:26.898Z,3.40
2022-09-12T18:07:57.277Z,3.40
2022-09-12T18:10:27.837Z,4.05
2022-09-12T18:12:58.780Z,4.78
2022-09-12T18:15:29.713Z,4.45
2022-09-12T18:18:00.156Z,3.70
2022-09-12T18:20:30.534Z,3.80
2022-09-12T18:23:01.318Z,4.45
2022-09-12T18:25:31.773Z,3.95
2022-09-12T18:28:06.076Z,4.08
2022-09-12T18:30:34.231Z,4.35
2022-09-12T18:33:04.793Z,5.92
2022-09-12T18:35:36.647Z,4.85
2022-09-12T18:38:07.148Z,5.10
2022-09-12T18:40:37.528Z,5.10
2022-09-12T18:43:08.037Z,5.45
2022-09-12T18:45:38.401Z,6.40
2022-09-12T18:48:09.386Z,5.12
2022-09-12T18:50:39.830Z,5.87
2022-09-12T18:53:11.232Z,7.47
2022-09-12T18:55:42.284Z,6.42
2022-09-12T18:58:12.641Z,5.80
2022-09-12T19:00:44.678Z,7.97
2022-09-12T19:03:15.071Z,7.03
2022-09-12T19:05:45.521Z,5.45
2022-09-12T19:08:15.837Z,7.08
2022-09-12T19:10:46.137Z,5.72
2022-09-12T19:13:17.482Z,5.92
2022-09-12T19:15:47.963Z,6.92
2022-09-12T19:18:18.575Z,7.05
2022-09-12T19:20:52.929Z,6.22
2022-09-12T19:23:23.323Z,7.42
2022-09-12T19:25:58.524Z,5.80
2022-09-12T19:28:29.481Z,6.15
2022-09-12T19:30:59.946Z,5.62
2022-09-12T19:33:30.419Z,6.55
2022-09-12T19:36:17.568Z,6.03
2022-09-12T19:38:41.616Z,6.35
2022-09-12T19:41:15.316Z,6.80
2022-09-12T19:43:48.250Z,6.30
2022-09-12T19:46:20.397Z,7.03
2022-09-12T19:48:52.163Z,7.35
2022-09-12T19:51:25.136Z,7.45
2022-09-12T19:53:55.628Z,7.40
2022-09-12T19:56:26.198Z,8.43
2022-09-12T19:58:57.842Z,6.15
2022-09-12T20:01:29.201Z,6.42
2022-09-12T20:03:59.971Z,7.58
2022-09-12T20:06:30.363Z,7.33
2022-09-12T20:09:00.843Z,7.08
2022-09-12T20:11:31.365Z,6.78
2022-09-12T20:14:01.864Z,7.42
2022-09-12T20:16:33.440Z,5.85
2022-09-12T20:19:09.357Z,5.90
2022-09-12T20:21:40.697Z,6.03
2022-09-12T20:24:15.982Z,5.65
2022-09-12T20:26:46.753Z,7.10
2022-09-12T20:29:17.120Z,6.42
2022-09-12T20:31:47.631Z,5.80
2022-09-12T20:34:20.839Z,5.40
2022-09-12T20:36:51.240Z,6.08
2022-09-12T20:39:23.598Z,5.85
2022-09-12T20:41:54.060Z,5.55
2022-09-12T20:44:24.448Z,6.30
2022-09-12T20:46:54.966Z,5.50
2022-09-12T20:49:25.433Z,5.45
2022-09-12T20:51:55.827Z,5.33
2022-09-12T20:54:26.226Z,5.53
2022-09-12T20:56:56.642Z,5.58
2022-09-12T20:59:27.311Z,5.67
2022-09-12T21:01:57.817Z,6.67
2022-09-12T21:04:28.310Z,4.87
2022-09-12T21:06:58.658Z,5.20
2022-09-12T21:09:29.064Z,5.90
2022-09-12T21:11:59.473Z,4.70
2022-09-12T21:14:29.874Z,4.95
2022-09-12T21:17:00.521Z,4.60
2022-09-12T21:19:30.834Z,5.12
2022-09-12T21:22:01.290Z,5.28
2022-09-12T21:24:31.686Z,4.17
2022-09-12T21:27:04.388Z,4.72
2022-09-12T21:29:34.433Z,5.70
2022-09-12T21:32:05.917Z,4.83
2022-09-12T21:34:36.609Z,5.15
2022-09-12T21:37:07.037Z,4.25
2022-09-12T21:39:37.387Z,5.22
2022-09-12T21:42:07.843Z,5.30
2022-09-12T21:44:38.321Z,4.50
2022-09-12T21:47:09.312Z,4.05
2022-09-12T21:49:39.664Z,5.08
2022-09-12T21:52:11.156Z,4.15
2022-09-12T21:54:41.546Z,3.90
2022-09-12T21:57:11.931Z,4.45
2022-09-12T21:59:42.363Z,3.83
2022-09-12T22:02:13.847Z,4.53
2022-09-12T22:04:44.345Z,4.25
2022-09-12T22:07:14.733Z,4.10
2022-09-12T22:09:45.399Z,4.35
2022-09-12T22:12:15.822Z,4.37
2022-09-12T22:14:46.669Z,4.42
2022-09-12T22:17:17.065Z,4.22
2022-09-12T22:19:47.481Z,4.35
2022-09-12T22:22:36.013Z,3.72
2022-09-12T22:25:09.937Z,5.40
2022-09-12T22:27:40.448Z,4.42
2022-09-12T22:30:11.917Z,4.55
2022-09-12T22:32:42.340Z,4.30
2022-09-12T22:35:12.708Z,3.75
2022-09-12T22:37:43.954Z,4.87
2022-09-12T22:40:15.508Z,5.40
2022-09-12T22:42:46.021Z,4.27
2022-09-12T22:45:16.692Z,3.65
2022-09-12T22:47:47.315Z,5.55
2022-09-12T22:50:17.690Z,3.95
2022-09-12T22:52:48.249Z,4.47
2022-09-12T22:55:18.734Z,6.83
2022-09-12T22:57:49.486Z,4.30
2022-09-12T23:00:19.941Z,3.90
2022-09-12T23:02:50.400Z,3.98
2022-09-12T23:05:20.948Z,4.10
2022-09-12T23:07:51.996Z,4.10
2022-09-12T23:10:22.771Z,4.17
2022-09-12T23:12:54.939Z,4.10
2022-09-12T23:15:25.333Z,4.37
2022-09-12T23:17:55.806Z,3.90
2022-09-12T23:20:26.558Z,4.17
2022-09-12T23:22:57.021Z,4.22
2022-09-12T23:25:27.532Z,4.00
2022-09-12T23:27:58.595Z,4.15
2022-09-12T23:30:29.074Z,4.22
2022-09-12T23:32:59.398Z,4.05
2022-09-12T23:35:29.777Z,3.87
2022-09-12T23:38:00.557Z,3.65
2022-09-12T23:40:30.949Z,4.20
2022-09-12T23:43:01.339Z,4.25
2022-09-12T23:45:31.880Z,4.40
2022-09-12T23:48:02.451Z,3.90
2022-09-12T23:50:32.947Z,4.00
2022-09-12T23:53:03.318Z,4.30
2022-09-12T23:55:33.674Z,4.10
2022-09-12T23:58:04.093Z,4.08
